Le terrain

Situé par 47° 02' 14" de latitude Nord et 000° 06' 05" de longitude Est, l'agréable terrain de Loudun-Véniers (LFDL) se trouve à 3 km dans le NNE de la ville natale de  Théophraste Renaudot . Vous le trouverez (le terrain !) au lieu-dit le Pé de Jojo, la légende voulant que le Pied de Jupiter - Pedem Jovis - s'y soit posé.

Loti d'une piste en herbe (790x60, voir carte VAC ci-dessous) refaite à neuf récemment (marquage de la piste – panneaux de points d'arrêts, etc…), équipé d'un automate Total (100LL),  le terrain a belle allure et est apprécié des pilotes locaux et voisins. Possibilité de prendre un rafraichissement ou boisson chaude sur place.


Situé à 11Nm de Thouars, 28Nm de Poitiers, 24 de Châtellerault, 28 de Sorigny et 16 de Saumur, il offre aux élèves effectuant leurs premières navigations en double commande ou en solo un environnement d'entraînement idéal. Pour les pilotes brevetés, il constitue un point de départ parfait pour le survol des châteaux de la Loire ou une journée sur les plages vendéennes.

Pour en savoir plus sur le Loudunais rendez-vous sur : tourisme-loudunais.com



Nous serons heureux de vous y accueillir.

Localisation sur Google map

Webcam :

Nuit aéronautique

25 mai 2018

Heure locale,
pour LFDL uniquement.

Lever du soleil aéronautique :05:44
Lever du soleil :06:14
Coucher du soleil :21:38
Coucher du soleil aéronautique :22:08

Metar

LFBI :
2018/05/25 13:30
LFBI 251330Z AUTO 36009KT 9999 FEW029/// SCT092/// OVC110/// ///TCU 19/17 Q1015 TEMPO VRB15G25KT 2000 -TSRA BKN015 OVC025CB
LFBI :
Poitiers, France (LFBI) 46-35N 000-19E 120M
May 25, 2018 - 09:30 AM EDT / 2018.05.25 1330 UTC
Wind: from the N (360 degrees) at 10 MPH (9 KT):0
Visibility: greater than 7 mile(s):0
Sky conditions: overcast
Weather: Cumulonimbus clouds, towering cumulus clouds observed
Temperature: 66 F (19 C)
Dew Point: 62 F (17 C)
Relative Humidity: 88%
Pressure (altimeter): 29.97 in. Hg (1015 hPa)
ob: LFBI 251330Z AUTO 36009KT 9999 FEW029/// SCT092/// OVC110/// ///TCU 19/17 Q1015 TEMPO VRB15G25KT 2000 -TSRA BKN015 OVC025CB
cycle: 13

Afficher le metar d'une autre station :
Code OACI :

Aéroclub de Loudun


Bellevue
86200 Loudun


Contacter Michel Richez (président)

  • Mail:michel.richez@free.fr
  • Tel:09-50-38-02-06
  • Mobile:06-52-73-09-01



agrandir le plan

Newsletter

Mon e-mail :